sensor_id;sensor_type;location;lat;lon;timestamp;P1;durP1;ratioP1;P2;durP2;ratioP2
25127;SDS011;13107;51.304;6.866;2022-12-10T00:03:49;44.67;;;23.42;;
25127;SDS011;13107;51.304;6.866;2022-12-10T00:07:51;43.80;;;21.87;;
25127;SDS011;13107;51.304;6.866;2022-12-10T00:11:53;40.83;;;21.37;;
25127;SDS011;13107;51.304;6.866;2022-12-10T00:15:55;42.38;;;21.37;;
25127;SDS011;13107;51.304;6.866;2022-12-10T00:19:56;43.00;;;22.52;;
25127;SDS011;13107;51.304;6.866;2022-12-10T00:23:58;44.35;;;23.27;;
25127;SDS011;13107;51.304;6.866;2022-12-10T00:28:01;45.10;;;22.80;;
25127;SDS011;13107;51.304;6.866;2022-12-10T00:32:02;42.03;;;22.50;;
25127;SDS011;13107;51.304;6.866;2022-12-10T00:36:08;46.05;;;22.83;;
25127;SDS011;13107;51.304;6.866;2022-12-10T00:40:11;43.25;;;22.70;;
25127;SDS011;13107;51.304;6.866;2022-12-10T00:44:13;50.17;;;24.12;;
25127;SDS011;13107;51.304;6.866;2022-12-10T00:48:15;47.67;;;22.92;;
25127;SDS011;13107;51.304;6.866;2022-12-10T00:52:17;42.58;;;22.17;;
25127;SDS011;13107;51.304;6.866;2022-12-10T00:56:20;43.38;;;21.92;;
25127;SDS011;13107;51.304;6.866;2022-12-10T01:00:23;42.95;;;23.05;;
25127;SDS011;13107;51.304;6.866;2022-12-10T01:04:25;46.37;;;21.70;;
25127;SDS011;13107;51.304;6.866;2022-12-10T01:08:27;44.47;;;22.05;;
25127;SDS011;13107;51.304;6.866;2022-12-10T01:12:29;45.78;;;23.00;;
25127;SDS011;13107;51.304;6.866;2022-12-10T01:16:30;47.33;;;22.23;;
25127;SDS011;13107;51.304;6.866;2022-12-10T01:20:34;43.53;;;21.35;;
25127;SDS011;13107;51.304;6.866;2022-12-10T01:24:37;44.22;;;21.40;;
25127;SDS011;13107;51.304;6.866;2022-12-10T01:28:39;44.95;;;21.73;;
25127;SDS011;13107;51.304;6.866;2022-12-10T01:32:42;41.55;;;21.75;;
25127;SDS011;13107;51.304;6.866;2022-12-10T01:36:44;40.85;;;21.30;;
25127;SDS011;13107;51.304;6.866;2022-12-10T01:40:49;42.67;;;21.92;;
25127;SDS011;13107;51.304;6.866;2022-12-10T01:44:58;39.75;;;21.40;;
25127;SDS011;13107;51.304;6.866;2022-12-10T01:49:03;41.45;;;22.05;;
25127;SDS011;13107;51.304;6.866;2022-12-10T01:53:10;38.05;;;20.27;;
25127;SDS011;13107;51.304;6.866;2022-12-10T01:57:17;37.03;;;19.40;;
25127;SDS011;13107;51.304;6.866;2022-12-10T02:02:05;44.10;;;20.80;;
25127;SDS011;13107;51.304;6.866;2022-12-10T02:05:49;36.97;;;19.75;;
25127;SDS011;13107;51.304;6.866;2022-12-10T02:19:08;38.55;;;20.50;;
25127;SDS011;13107;51.304;6.866;2022-12-10T02:23:39;43.03;;;20.35;;
25127;SDS011;13107;51.304;6.866;2022-12-10T02:32:16;37.15;;;19.58;;
25127;SDS011;13107;51.304;6.866;2022-12-10T02:36:22;38.47;;;20.73;;
25127;SDS011;13107;51.304;6.866;2022-12-10T02:40:29;37.47;;;19.95;;
25127;SDS011;13107;51.304;6.866;2022-12-10T02:44:34;38.03;;;19.97;;
25127;SDS011;13107;51.304;6.866;2022-12-10T02:48:38;44.35;;;20.95;;
25127;SDS011;13107;51.304;6.866;2022-12-10T02:52:41;43.05;;;22.13;;
25127;SDS011;13107;51.304;6.866;2022-12-10T02:56:44;38.95;;;20.90;;
25127;SDS011;13107;51.304;6.866;2022-12-10T03:01:02;38.55;;;20.67;;
25127;SDS011;13107;51.304;6.866;2022-12-10T03:09:37;43.00;;;21.23;;
25127;SDS011;13107;51.304;6.866;2022-12-10T03:17:55;37.65;;;20.45;;
25127;SDS011;13107;51.304;6.866;2022-12-10T03:21:59;43.72;;;22.20;;
25127;SDS011;13107;51.304;6.866;2022-12-10T03:26:04;39.15;;;20.62;;
25127;SDS011;13107;51.304;6.866;2022-12-10T03:30:06;40.67;;;22.08;;
25127;SDS011;13107;51.304;6.866;2022-12-10T03:34:09;40.75;;;21.08;;
25127;SDS011;13107;51.304;6.866;2022-12-10T03:38:13;40.30;;;21.55;;
25127;SDS011;13107;51.304;6.866;2022-12-10T03:42:15;44.15;;;22.62;;
25127;SDS011;13107;51.304;6.866;2022-12-10T03:46:17;44.80;;;23.27;;
25127;SDS011;13107;51.304;6.866;2022-12-10T03:50:19;43.63;;;22.98;;
25127;SDS011;13107;51.304;6.866;2022-12-10T03:54:21;44.15;;;23.40;;
25127;SDS011;13107;51.304;6.866;2022-12-10T03:58:22;51.42;;;26.02;;
25127;SDS011;13107;51.304;6.866;2022-12-10T04:02:24;47.28;;;25.48;;
25127;SDS011;13107;51.304;6.866;2022-12-10T04:06:26;58.72;;;28.20;;
25127;SDS011;13107;51.304;6.866;2022-12-10T04:10:27;55.58;;;28.05;;
25127;SDS011;13107;51.304;6.866;2022-12-10T04:14:29;53.85;;;26.23;;
25127;SDS011;13107;51.304;6.866;2022-12-10T04:18:49;56.50;;;27.20;;
25127;SDS011;13107;51.304;6.866;2022-12-10T04:22:59;55.60;;;27.75;;
25127;SDS011;13107;51.304;6.866;2022-12-10T04:31:29;55.47;;;26.87;;
25127;SDS011;13107;51.304;6.866;2022-12-10T04:35:30;52.42;;;26.37;;
25127;SDS011;13107;51.304;6.866;2022-12-10T04:39:32;51.10;;;24.98;;
25127;SDS011;13107;51.304;6.866;2022-12-10T04:43:34;46.95;;;24.00;;
25127;SDS011;13107;51.304;6.866;2022-12-10T04:47:36;50.05;;;26.42;;
25127;SDS011;13107;51.304;6.866;2022-12-10T04:51:37;58.40;;;28.10;;
25127;SDS011;13107;51.304;6.866;2022-12-10T04:55:40;55.65;;;27.77;;
25127;SDS011;13107;51.304;6.866;2022-12-10T04:59:41;55.17;;;27.80;;
25127;SDS011;13107;51.304;6.866;2022-12-10T05:03:44;62.95;;;28.80;;
25127;SDS011;13107;51.304;6.866;2022-12-10T05:07:46;63.95;;;29.70;;
25127;SDS011;13107;51.304;6.866;2022-12-10T05:11:47;56.75;;;26.65;;
25127;SDS011;13107;51.304;6.866;2022-12-10T05:15:49;56.35;;;27.77;;
25127;SDS011;13107;51.304;6.866;2022-12-10T05:19:51;52.97;;;26.25;;
25127;SDS011;13107;51.304;6.866;2022-12-10T05:23:53;50.20;;;25.23;;
25127;SDS011;13107;51.304;6.866;2022-12-10T05:27:54;54.15;;;26.05;;
25127;SDS011;13107;51.304;6.866;2022-12-10T05:31:56;60.15;;;27.75;;
25127;SDS011;13107;51.304;6.866;2022-12-10T05:36:02;66.78;;;30.77;;
25127;SDS011;13107;51.304;6.866;2022-12-10T05:40:04;68.75;;;30.12;;
25127;SDS011;13107;51.304;6.866;2022-12-10T05:44:08;73.85;;;31.33;;
25127;SDS011;13107;51.304;6.866;2022-12-10T05:48:11;76.60;;;32.55;;
25127;SDS011;13107;51.304;6.866;2022-12-10T05:52:14;75.45;;;31.55;;
25127;SDS011;13107;51.304;6.866;2022-12-10T05:56:16;78.47;;;32.15;;
25127;SDS011;13107;51.304;6.866;2022-12-10T06:00:22;78.00;;;31.35;;
25127;SDS011;13107;51.304;6.866;2022-12-10T06:04:24;68.55;;;29.15;;
25127;SDS011;13107;51.304;6.866;2022-12-10T06:08:26;72.25;;;31.95;;
25127;SDS011;13107;51.304;6.866;2022-12-10T06:12:28;66.95;;;30.65;;
25127;SDS011;13107;51.304;6.866;2022-12-10T06:16:29;69.03;;;30.90;;
25127;SDS011;13107;51.304;6.866;2022-12-10T06:20:31;66.25;;;30.52;;
25127;SDS011;13107;51.304;6.866;2022-12-10T06:24:33;67.47;;;30.20;;
25127;SDS011;13107;51.304;6.866;2022-12-10T06:28:35;64.93;;;29.27;;
25127;SDS011;13107;51.304;6.866;2022-12-10T06:32:38;68.18;;;30.23;;
25127;SDS011;13107;51.304;6.866;2022-12-10T06:36:40;65.97;;;29.87;;
25127;SDS011;13107;51.304;6.866;2022-12-10T06:40:42;69.47;;;29.98;;
25127;SDS011;13107;51.304;6.866;2022-12-10T06:44:44;67.30;;;29.23;;
25127;SDS011;13107;51.304;6.866;2022-12-10T06:48:45;65.37;;;30.77;;
25127;SDS011;13107;51.304;6.866;2022-12-10T06:52:47;66.90;;;28.85;;
25127;SDS011;13107;51.304;6.866;2022-12-10T06:56:55;71.28;;;30.45;;
25127;SDS011;13107;51.304;6.866;2022-12-10T07:01:07;70.70;;;31.20;;
25127;SDS011;13107;51.304;6.866;2022-12-10T07:05:11;70.57;;;31.50;;
25127;SDS011;13107;51.304;6.866;2022-12-10T07:09:12;61.75;;;30.02;;
25127;SDS011;13107;51.304;6.866;2022-12-10T07:13:14;76.55;;;33.30;;
25127;SDS011;13107;51.304;6.866;2022-12-10T07:17:16;78.62;;;33.45;;
25127;SDS011;13107;51.304;6.866;2022-12-10T07:21:21;72.95;;;33.17;;
25127;SDS011;13107;51.304;6.866;2022-12-10T07:25:25;75.07;;;33.90;;
25127;SDS011;13107;51.304;6.866;2022-12-10T07:29:27;76.00;;;34.90;;
25127;SDS011;13107;51.304;6.866;2022-12-10T07:33:29;79.57;;;35.00;;
25127;SDS011;13107;51.304;6.866;2022-12-10T07:37:30;86.75;;;37.10;;
25127;SDS011;13107;51.304;6.866;2022-12-10T07:41:32;84.07;;;38.03;;
25127;SDS011;13107;51.304;6.866;2022-12-10T07:45:34;82.00;;;38.40;;
25127;SDS011;13107;51.304;6.866;2022-12-10T07:49:35;77.75;;;36.67;;
25127;SDS011;13107;51.304;6.866;2022-12-10T07:53:37;73.07;;;35.80;;
25127;SDS011;13107;51.304;6.866;2022-12-10T07:57:39;75.35;;;35.30;;
25127;SDS011;13107;51.304;6.866;2022-12-10T08:01:41;75.18;;;34.13;;
25127;SDS011;13107;51.304;6.866;2022-12-10T08:05:43;76.62;;;34.20;;
25127;SDS011;13107;51.304;6.866;2022-12-10T08:09:44;81.18;;;35.05;;
25127;SDS011;13107;51.304;6.866;2022-12-10T08:13:46;74.78;;;34.78;;
25127;SDS011;13107;51.304;6.866;2022-12-10T08:17:55;72.90;;;33.85;;
25127;SDS011;13107;51.304;6.866;2022-12-10T08:21:57;78.53;;;34.28;;
25127;SDS011;13107;51.304;6.866;2022-12-10T08:26:02;75.70;;;34.47;;
25127;SDS011;13107;51.304;6.866;2022-12-10T08:30:08;83.70;;;37.58;;
25127;SDS011;13107;51.304;6.866;2022-12-10T08:34:12;83.18;;;35.55;;
25127;SDS011;13107;51.304;6.866;2022-12-10T08:38:15;80.32;;;36.42;;
25127;SDS011;13107;51.304;6.866;2022-12-10T08:42:17;81.32;;;37.20;;
25127;SDS011;13107;51.304;6.866;2022-12-10T08:46:18;80.40;;;36.55;;
25127;SDS011;13107;51.304;6.866;2022-12-10T08:50:20;75.82;;;34.20;;
25127;SDS011;13107;51.304;6.866;2022-12-10T08:54:22;83.50;;;36.58;;
25127;SDS011;13107;51.304;6.866;2022-12-10T08:58:24;78.95;;;34.92;;
25127;SDS011;13107;51.304;6.866;2022-12-10T09:02:25;80.60;;;35.38;;
25127;SDS011;13107;51.304;6.866;2022-12-10T09:06:27;81.95;;;33.92;;
25127;SDS011;13107;51.304;6.866;2022-12-10T09:10:29;73.70;;;33.13;;
25127;SDS011;13107;51.304;6.866;2022-12-10T09:14:31;71.82;;;32.83;;
25127;SDS011;13107;51.304;6.866;2022-12-10T09:18:33;72.37;;;31.95;;
25127;SDS011;13107;51.304;6.866;2022-12-10T09:22:35;68.87;;;30.80;;
25127;SDS011;13107;51.304;6.866;2022-12-10T09:26:40;68.50;;;32.08;;
25127;SDS011;13107;51.304;6.866;2022-12-10T09:30:41;72.60;;;32.67;;
25127;SDS011;13107;51.304;6.866;2022-12-10T09:34:43;66.25;;;32.63;;
25127;SDS011;13107;51.304;6.866;2022-12-10T09:38:45;66.03;;;29.85;;
25127;SDS011;13107;51.304;6.866;2022-12-10T09:42:55;69.90;;;32.47;;
25127;SDS011;13107;51.304;6.866;2022-12-10T09:47:20;64.15;;;31.02;;
25127;SDS011;13107;51.304;6.866;2022-12-10T09:51:29;60.55;;;28.08;;
25127;SDS011;13107;51.304;6.866;2022-12-10T09:55:34;62.50;;;26.62;;
25127;SDS011;13107;51.304;6.866;2022-12-10T09:59:40;68.55;;;30.58;;
25127;SDS011;13107;51.304;6.866;2022-12-10T10:03:47;67.35;;;31.10;;
25127;SDS011;13107;51.304;6.866;2022-12-10T10:07:53;68.05;;;29.77;;
25127;SDS011;13107;51.304;6.866;2022-12-10T10:11:57;66.75;;;31.65;;
25127;SDS011;13107;51.304;6.866;2022-12-10T10:20:33;64.55;;;28.67;;
25127;SDS011;13107;51.304;6.866;2022-12-10T10:24:36;55.78;;;25.50;;
25127;SDS011;13107;51.304;6.866;2022-12-10T10:28:40;60.12;;;26.70;;
25127;SDS011;13107;51.304;6.866;2022-12-10T10:32:45;66.60;;;29.52;;
25127;SDS011;13107;51.304;6.866;2022-12-10T10:36:56;60.05;;;27.37;;
25127;SDS011;13107;51.304;6.866;2022-12-10T10:40:59;66.97;;;29.10;;
25127;SDS011;13107;51.304;6.866;2022-12-10T10:45:30;60.00;;;25.60;;
25127;SDS011;13107;51.304;6.866;2022-12-10T10:49:37;61.03;;;28.12;;
25127;SDS011;13107;51.304;6.866;2022-12-10T10:53:48;60.90;;;26.37;;
25127;SDS011;13107;51.304;6.866;2022-12-10T10:57:53;60.17;;;27.08;;
25127;SDS011;13107;51.304;6.866;2022-12-10T11:02:03;60.03;;;26.50;;
25127;SDS011;13107;51.304;6.866;2022-12-10T11:06:21;63.13;;;27.15;;
25127;SDS011;13107;51.304;6.866;2022-12-10T11:10:24;57.50;;;26.37;;
25127;SDS011;13107;51.304;6.866;2022-12-10T11:14:28;51.92;;;24.92;;
25127;SDS011;13107;51.304;6.866;2022-12-10T11:18:51;58.85;;;26.37;;
25127;SDS011;13107;51.304;6.866;2022-12-10T11:27:04;53.77;;;24.70;;
25127;SDS011;13107;51.304;6.866;2022-12-10T11:35:41;47.22;;;23.05;;
25127;SDS011;13107;51.304;6.866;2022-12-10T11:39:58;46.08;;;23.08;;
25127;SDS011;13107;51.304;6.866;2022-12-10T11:52:52;42.00;;;21.25;;
25127;SDS011;13107;51.304;6.866;2022-12-10T11:57:02;42.35;;;22.55;;
25127;SDS011;13107;51.304;6.866;2022-12-10T12:14:58;47.97;;;21.87;;
25127;SDS011;13107;51.304;6.866;2022-12-10T12:19:05;47.33;;;23.40;;
25127;SDS011;13107;51.304;6.866;2022-12-10T12:23:19;43.20;;;22.65;;
25127;SDS011;13107;51.304;6.866;2022-12-10T12:32:17;41.65;;;21.05;;
25127;SDS011;13107;51.304;6.866;2022-12-10T12:36:30;43.25;;;21.67;;
25127;SDS011;13107;51.304;6.866;2022-12-10T12:49:41;47.65;;;23.23;;
25127;SDS011;13107;51.304;6.866;2022-12-10T12:53:45;44.25;;;23.08;;
25127;SDS011;13107;51.304;6.866;2022-12-10T12:57:52;40.58;;;19.77;;
25127;SDS011;13107;51.304;6.866;2022-12-10T13:06:43;44.92;;;22.33;;
25127;SDS011;13107;51.304;6.866;2022-12-10T13:11:18;46.92;;;22.83;;
25127;SDS011;13107;51.304;6.866;2022-12-10T13:15:35;49.10;;;25.30;;
25127;SDS011;13107;51.304;6.866;2022-12-10T13:19:40;47.22;;;24.27;;
25127;SDS011;13107;51.304;6.866;2022-12-10T13:23:50;45.60;;;24.35;;
25127;SDS011;13107;51.304;6.866;2022-12-10T13:27:57;49.47;;;24.23;;
25127;SDS011;13107;51.304;6.866;2022-12-10T13:32:18;46.17;;;24.30;;
25127;SDS011;13107;51.304;6.866;2022-12-10T13:36:28;47.60;;;25.12;;
25127;SDS011;13107;51.304;6.866;2022-12-10T13:40:55;48.47;;;24.70;;
25127;SDS011;13107;51.304;6.866;2022-12-10T13:49:26;45.42;;;23.35;;
25127;SDS011;13107;51.304;6.866;2022-12-10T14:02:23;55.42;;;27.37;;
25127;SDS011;13107;51.304;6.866;2022-12-10T14:06:39;49.65;;;25.58;;
25127;SDS011;13107;51.304;6.866;2022-12-10T14:10:43;53.65;;;25.48;;
25127;SDS011;13107;51.304;6.866;2022-12-10T14:14:47;52.97;;;25.58;;
25127;SDS011;13107;51.304;6.866;2022-12-10T14:18:57;56.55;;;26.05;;
25127;SDS011;13107;51.304;6.866;2022-12-10T14:23:03;58.97;;;27.98;;
25127;SDS011;13107;51.304;6.866;2022-12-10T14:27:26;56.67;;;27.35;;
25127;SDS011;13107;51.304;6.866;2022-12-10T14:35:35;52.58;;;25.58;;
25127;SDS011;13107;51.304;6.866;2022-12-10T14:39:37;53.45;;;26.45;;
25127;SDS011;13107;51.304;6.866;2022-12-10T14:43:40;60.42;;;27.75;;
25127;SDS011;13107;51.304;6.866;2022-12-10T14:47:42;64.47;;;29.08;;
25127;SDS011;13107;51.304;6.866;2022-12-10T14:51:49;60.95;;;28.73;;
25127;SDS011;13107;51.304;6.866;2022-12-10T14:55:55;55.97;;;28.73;;
25127;SDS011;13107;51.304;6.866;2022-12-10T15:00:04;61.40;;;28.05;;
25127;SDS011;13107;51.304;6.866;2022-12-10T15:04:16;59.90;;;26.50;;
25127;SDS011;13107;51.304;6.866;2022-12-10T15:08:27;53.10;;;28.00;;
25127;SDS011;13107;51.304;6.866;2022-12-10T15:12:41;52.28;;;27.42;;
25127;SDS011;13107;51.304;6.866;2022-12-10T15:16:46;52.50;;;26.23;;
25127;SDS011;13107;51.304;6.866;2022-12-10T15:20:52;53.20;;;26.98;;
25127;SDS011;13107;51.304;6.866;2022-12-10T15:33:32;54.92;;;27.73;;
25127;SDS011;13107;51.304;6.866;2022-12-10T15:37:38;58.45;;;27.60;;
25127;SDS011;13107;51.304;6.866;2022-12-10T15:45:52;51.28;;;26.08;;
25127;SDS011;13107;51.304;6.866;2022-12-10T15:49:54;51.85;;;27.23;;
25127;SDS011;13107;51.304;6.866;2022-12-10T15:53:56;54.50;;;29.37;;
25127;SDS011;13107;51.304;6.866;2022-12-10T15:57:58;55.30;;;27.98;;
25127;SDS011;13107;51.304;6.866;2022-12-10T16:02:00;52.62;;;28.65;;
25127;SDS011;13107;51.304;6.866;2022-12-10T16:06:03;49.63;;;26.15;;
25127;SDS011;13107;51.304;6.866;2022-12-10T16:10:05;53.70;;;27.00;;
25127;SDS011;13107;51.304;6.866;2022-12-10T16:14:08;54.25;;;27.70;;
25127;SDS011;13107;51.304;6.866;2022-12-10T16:18:11;52.15;;;25.92;;
25127;SDS011;13107;51.304;6.866;2022-12-10T16:22:13;50.55;;;25.15;;
25127;SDS011;13107;51.304;6.866;2022-12-10T16:26:16;53.17;;;26.77;;
25127;SDS011;13107;51.304;6.866;2022-12-10T16:30:21;47.55;;;25.05;;
25127;SDS011;13107;51.304;6.866;2022-12-10T16:34:24;49.83;;;26.12;;
25127;SDS011;13107;51.304;6.866;2022-12-10T16:38:26;52.08;;;25.55;;
25127;SDS011;13107;51.304;6.866;2022-12-10T16:42:28;52.25;;;26.77;;
25127;SDS011;13107;51.304;6.866;2022-12-10T16:46:30;57.20;;;27.62;;
25127;SDS011;13107;51.304;6.866;2022-12-10T16:50:31;53.80;;;26.45;;
25127;SDS011;13107;51.304;6.866;2022-12-10T16:54:33;56.25;;;25.95;;
25127;SDS011;13107;51.304;6.866;2022-12-10T16:58:35;56.60;;;25.67;;
25127;SDS011;13107;51.304;6.866;2022-12-10T17:02:36;56.40;;;26.37;;
25127;SDS011;13107;51.304;6.866;2022-12-10T17:06:38;53.95;;;25.50;;
25127;SDS011;13107;51.304;6.866;2022-12-10T17:10:40;45.70;;;22.92;;
25127;SDS011;13107;51.304;6.866;2022-12-10T17:15:00;50.17;;;23.40;;
25127;SDS011;13107;51.304;6.866;2022-12-10T17:19:03;56.80;;;25.55;;
25127;SDS011;13107;51.304;6.866;2022-12-10T17:23:05;48.30;;;22.23;;
25127;SDS011;13107;51.304;6.866;2022-12-10T17:27:11;48.87;;;22.35;;
25127;SDS011;13107;51.304;6.866;2022-12-10T17:31:15;46.53;;;21.40;;
25127;SDS011;13107;51.304;6.866;2022-12-10T17:35:16;50.67;;;21.58;;
25127;SDS011;13107;51.304;6.866;2022-12-10T17:39:19;42.62;;;21.25;;
25127;SDS011;13107;51.304;6.866;2022-12-10T17:43:23;50.33;;;21.70;;
25127;SDS011;13107;51.304;6.866;2022-12-10T17:47:26;49.13;;;22.13;;
25127;SDS011;13107;51.304;6.866;2022-12-10T17:51:29;53.35;;;22.25;;
25127;SDS011;13107;51.304;6.866;2022-12-10T17:55:32;50.50;;;23.65;;
25127;SDS011;13107;51.304;6.866;2022-12-10T17:59:33;58.05;;;24.65;;
25127;SDS011;13107;51.304;6.866;2022-12-10T18:03:36;46.28;;;23.00;;
25127;SDS011;13107;51.304;6.866;2022-12-10T18:07:39;51.17;;;23.30;;
25127;SDS011;13107;51.304;6.866;2022-12-10T18:11:41;48.28;;;22.65;;
25127;SDS011;13107;51.304;6.866;2022-12-10T18:15:44;57.70;;;23.60;;
25127;SDS011;13107;51.304;6.866;2022-12-10T18:19:46;51.63;;;23.10;;
25127;SDS011;13107;51.304;6.866;2022-12-10T18:23:53;51.13;;;23.50;;
25127;SDS011;13107;51.304;6.866;2022-12-10T18:27:56;51.55;;;23.77;;
25127;SDS011;13107;51.304;6.866;2022-12-10T18:32:02;48.87;;;23.17;;
25127;SDS011;13107;51.304;6.866;2022-12-10T18:36:04;48.13;;;22.70;;
25127;SDS011;13107;51.304;6.866;2022-12-10T18:40:06;51.05;;;22.08;;
25127;SDS011;13107;51.304;6.866;2022-12-10T18:44:12;48.17;;;22.02;;
25127;SDS011;13107;51.304;6.866;2022-12-10T18:48:17;49.67;;;22.67;;
25127;SDS011;13107;51.304;6.866;2022-12-10T18:52:18;53.35;;;23.48;;
25127;SDS011;13107;51.304;6.866;2022-12-10T18:56:21;50.22;;;21.77;;
25127;SDS011;13107;51.304;6.866;2022-12-10T19:00:25;44.40;;;21.10;;
25127;SDS011;13107;51.304;6.866;2022-12-10T19:04:27;49.78;;;22.50;;
25127;SDS011;13107;51.304;6.866;2022-12-10T19:08:29;48.42;;;21.77;;
25127;SDS011;13107;51.304;6.866;2022-12-10T19:12:37;52.47;;;23.62;;
25127;SDS011;13107;51.304;6.866;2022-12-10T19:16:38;50.20;;;22.87;;
25127;SDS011;13107;51.304;6.866;2022-12-10T19:20:40;53.30;;;24.33;;
25127;SDS011;13107;51.304;6.866;2022-12-10T19:24:42;52.40;;;24.08;;
25127;SDS011;13107;51.304;6.866;2022-12-10T19:28:44;57.35;;;26.70;;
25127;SDS011;13107;51.304;6.866;2022-12-10T19:32:46;50.92;;;22.48;;
25127;SDS011;13107;51.304;6.866;2022-12-10T19:36:48;53.78;;;23.65;;
25127;SDS011;13107;51.304;6.866;2022-12-10T19:40:50;51.55;;;22.27;;
25127;SDS011;13107;51.304;6.866;2022-12-10T19:44:52;52.15;;;24.37;;
25127;SDS011;13107;51.304;6.866;2022-12-10T19:48:54;50.83;;;24.73;;
25127;SDS011;13107;51.304;6.866;2022-12-10T19:52:56;59.70;;;27.27;;
25127;SDS011;13107;51.304;6.866;2022-12-10T19:56:59;57.30;;;23.77;;
25127;SDS011;13107;51.304;6.866;2022-12-10T20:01:00;54.13;;;23.48;;
25127;SDS011;13107;51.304;6.866;2022-12-10T20:05:07;45.40;;;22.62;;
25127;SDS011;13107;51.304;6.866;2022-12-10T20:09:20;49.38;;;22.00;;
25127;SDS011;13107;51.304;6.866;2022-12-10T20:13:24;46.15;;;22.00;;
25127;SDS011;13107;51.304;6.866;2022-12-10T20:17:26;46.37;;;22.73;;
25127;SDS011;13107;51.304;6.866;2022-12-10T20:21:27;48.72;;;22.52;;
25127;SDS011;13107;51.304;6.866;2022-12-10T20:25:29;47.28;;;24.20;;
25127;SDS011;13107;51.304;6.866;2022-12-10T20:29:31;49.72;;;23.12;;
25127;SDS011;13107;51.304;6.866;2022-12-10T20:33:33;51.17;;;22.83;;
25127;SDS011;13107;51.304;6.866;2022-12-10T20:37:47;53.65;;;22.75;;
25127;SDS011;13107;51.304;6.866;2022-12-10T20:41:50;53.00;;;24.23;;
25127;SDS011;13107;51.304;6.866;2022-12-10T20:45:52;51.35;;;23.75;;
25127;SDS011;13107;51.304;6.866;2022-12-10T20:49:54;59.70;;;26.35;;
25127;SDS011;13107;51.304;6.866;2022-12-10T20:53:56;61.17;;;25.10;;
25127;SDS011;13107;51.304;6.866;2022-12-10T20:57:57;59.08;;;25.45;;
25127;SDS011;13107;51.304;6.866;2022-12-10T21:02:00;58.75;;;27.20;;
25127;SDS011;13107;51.304;6.866;2022-12-10T21:06:02;63.33;;;28.50;;
25127;SDS011;13107;51.304;6.866;2022-12-10T21:10:05;54.80;;;26.42;;
25127;SDS011;13107;51.304;6.866;2022-12-10T21:14:07;55.95;;;24.52;;
25127;SDS011;13107;51.304;6.866;2022-12-10T21:18:29;51.35;;;23.02;;
25127;SDS011;13107;51.304;6.866;2022-12-10T21:22:31;50.00;;;23.10;;
25127;SDS011;13107;51.304;6.866;2022-12-10T21:26:33;54.88;;;23.40;;
25127;SDS011;13107;51.304;6.866;2022-12-10T21:30:37;56.83;;;24.90;;
25127;SDS011;13107;51.304;6.866;2022-12-10T21:34:40;62.03;;;26.27;;
25127;SDS011;13107;51.304;6.866;2022-12-10T21:38:42;73.20;;;29.67;;
25127;SDS011;13107;51.304;6.866;2022-12-10T21:42:44;73.25;;;29.67;;
25127;SDS011;13107;51.304;6.866;2022-12-10T21:47:05;84.22;;;30.15;;
25127;SDS011;13107;51.304;6.866;2022-12-10T21:51:08;76.57;;;29.83;;
25127;SDS011;13107;51.304;6.866;2022-12-10T21:55:10;72.45;;;27.05;;
25127;SDS011;13107;51.304;6.866;2022-12-10T21:59:12;64.65;;;26.85;;
25127;SDS011;13107;51.304;6.866;2022-12-10T22:03:14;65.25;;;25.88;;
25127;SDS011;13107;51.304;6.866;2022-12-10T22:07:15;59.50;;;23.12;;
25127;SDS011;13107;51.304;6.866;2022-12-10T22:11:18;61.20;;;24.42;;
25127;SDS011;13107;51.304;6.866;2022-12-10T22:15:19;56.85;;;23.10;;
25127;SDS011;13107;51.304;6.866;2022-12-10T22:19:21;58.75;;;22.77;;
25127;SDS011;13107;51.304;6.866;2022-12-10T22:23:23;64.80;;;24.15;;
25127;SDS011;13107;51.304;6.866;2022-12-10T22:27:26;58.80;;;23.42;;
25127;SDS011;13107;51.304;6.866;2022-12-10T22:31:33;60.22;;;23.83;;
25127;SDS011;13107;51.304;6.866;2022-12-10T22:35:35;59.85;;;22.95;;
25127;SDS011;13107;51.304;6.866;2022-12-10T22:39:38;64.12;;;23.25;;
25127;SDS011;13107;51.304;6.866;2022-12-10T22:43:39;56.03;;;22.10;;
25127;SDS011;13107;51.304;6.866;2022-12-10T22:47:51;51.97;;;21.33;;
25127;SDS011;13107;51.304;6.866;2022-12-10T22:51:53;65.53;;;23.73;;
25127;SDS011;13107;51.304;6.866;2022-12-10T22:55:55;58.50;;;23.75;;
25127;SDS011;13107;51.304;6.866;2022-12-10T23:00:00;65.30;;;22.23;;
25127;SDS011;13107;51.304;6.866;2022-12-10T23:04:03;58.78;;;22.75;;
25127;SDS011;13107;51.304;6.866;2022-12-10T23:08:05;66.78;;;22.80;;
25127;SDS011;13107;51.304;6.866;2022-12-10T23:12:07;65.28;;;23.70;;
25127;SDS011;13107;51.304;6.866;2022-12-10T23:16:28;71.12;;;24.08;;
25127;SDS011;13107;51.304;6.866;2022-12-10T23:20:30;71.10;;;24.05;;
25127;SDS011;13107;51.304;6.866;2022-12-10T23:24:33;66.70;;;24.25;;
25127;SDS011;13107;51.304;6.866;2022-12-10T23:28:35;72.20;;;24.87;;
25127;SDS011;13107;51.304;6.866;2022-12-10T23:32:37;71.28;;;25.65;;
25127;SDS011;13107;51.304;6.866;2022-12-10T23:36:38;75.90;;;25.73;;
25127;SDS011;13107;51.304;6.866;2022-12-10T23:40:41;73.72;;;25.12;;
25127;SDS011;13107;51.304;6.866;2022-12-10T23:44:43;70.12;;;26.40;;
25127;SDS011;13107;51.304;6.866;2022-12-10T23:48:45;69.35;;;25.60;;
25127;SDS011;13107;51.304;6.866;2022-12-10T23:52:46;66.97;;;24.75;;
25127;SDS011;13107;51.304;6.866;2022-12-10T23:56:48;66.57;;;25.40;;
